Time;durP1;ratioP1;P1;durP2;ratioP2;P2;SDS_P1;SDS_P2;PMS_P1;PMS_P2;Temp;Humidity;BMP_temperature;BMP_pressure;BME280_temperature;BME280_humidity;BME280_pressure;Samples;Min_cycle;Max_cycle;Signal;HPM_P1;HPM_P2
2022/06/20 00:01:00;;;;;;;1.20;1.10;;;23.50;99.90;;;;;;5012495;28;20447;-71
2022/06/20 00:03:29;;;;;;;0.50;0.30;;;23.50;99.90;;;;;;5013293;28;20879;-71
2022/06/20 00:05:56;;;;;;;1.63;1.33;;;23.40;99.90;;;;;;5012483;28;20900;-71
2022/06/20 00:08:21;;;;;;;1.40;0.80;;;23.30;99.90;;;;;;5013216;28;20888;-71
2022/06/20 00:10:48;;;;;;;4.60;0.80;;;23.40;99.90;;;;;;5011859;28;20389;-71
2022/06/20 00:13:22;;;;;;;0.60;0.60;;;23.50;99.90;;;;;;4995411;28;20393;-71
2022/06/20 00:15:49;;;;;;;0.40;0.30;;;23.40;99.90;;;;;;5011651;28;20412;-71
2022/06/20 00:18:16;;;;;;;0.90;0.90;;;23.30;99.90;;;;;;5012987;28;20397;-71
2022/06/20 00:20:42;;;;;;;0.40;0.20;;;23.20;99.90;;;;;;5012444;28;20911;-71
2022/06/20 00:23:08;;;;;;;0.60;0.50;;;23.10;99.90;;;;;;5012264;28;20393;-70
2022/06/20 00:25:38;;;;;;;0.40;0.20;;;23.10;99.90;;;;;;5012467;28;20393;-70
2022/06/20 00:28:04;;;;;;;0.50;0.40;;;22.90;99.90;;;;;;5011795;28;20413;-71
2022/06/20 00:30:30;;;;;;;0.80;0.80;;;22.90;99.90;;;;;;5012785;28;20723;-70
2022/06/20 00:32:56;;;;;;;0.40;0.20;;;23.00;99.90;;;;;;5011479;28;20416;-71
2022/06/20 00:35:22;;;;;;;0.40;0.20;;;23.00;99.90;;;;;;5012623;28;20400;-71
2022/06/20 00:37:48;;;;;;;0.60;0.60;;;23.00;99.90;;;;;;5011147;28;20401;-71
2022/06/20 00:40:32;;;;;;;1.63;0.82;;;23.10;99.90;;;;;;5012394;28;20431;-71
2022/06/20 00:42:58;;;;;;;0.50;0.40;;;23.00;99.90;;;;;;5011394;28;20926;-71
2022/06/20 00:45:27;;;;;;;0.40;0.30;;;23.10;99.90;;;;;;5012331;28;20392;-71
2022/06/20 00:48:05;;;;;;;0.50;0.30;;;23.00;99.90;;;;;;5011671;28;20424;-71
2022/06/20 00:50:32;;;;;;;0.50;0.30;;;22.90;99.90;;;;;;5011634;28;20417;-71
2022/06/20 00:53:18;;;;;;;0.90;0.70;;;22.80;99.90;;;;;;5011051;28;20430;-71
2022/06/20 00:55:55;;;;;;;0.40;0.30;;;22.90;99.90;;;;;;5011797;28;20401;-71
2022/06/20 00:58:52;;;;;;;0.40;0.30;;;22.90;99.90;;;;;;5012737;28;20396;-71
2022/06/20 01:01:24;;;;;;;0.40;0.30;;;22.90;99.90;;;;;;5012535;28;20384;-71
2022/06/20 01:03:55;;;;;;;0.50;0.50;;;22.80;99.90;;;;;;5011885;28;20850;-71
2022/06/20 01:06:34;;;;;;;0.50;0.40;;;23.00;99.90;;;;;;5011970;28;20488;-70
2022/06/20 01:09:06;;;;;;;0.63;0.57;;;23.10;99.90;;;;;;5011150;28;20463;-71
2022/06/20 01:11:44;;;;;;;1.30;1.20;;;23.10;99.90;;;;;;5010606;28;20428;-70
2022/06/20 01:14:37;;;;;;;0.60;0.50;;;23.20;99.90;;;;;;5011573;28;20407;-70
2022/06/20 01:17:27;;;;;;;0.50;0.40;;;23.30;99.90;;;;;;5010501;28;20479;-70
2022/06/20 01:20:17;;;;;;;0.40;0.30;;;23.30;99.90;;;;;;5011273;28;20715;-71
2022/06/20 01:23:01;;;;;;;0.50;0.40;;;23.60;99.30;;;;;;5011462;28;20431;-70
2022/06/20 01:25:38;;;;;;;0.40;0.20;;;23.70;99.90;;;;;;5010339;28;20404;-70
2022/06/20 01:28:07;;;;;;;0.43;0.30;;;24.20;94.00;;;;;;5010622;28;20944;-70
2022/06/20 01:30:36;;;;;;;0.47;0.30;;;24.80;91.20;;;;;;5011232;28;20397;-71
2022/06/20 01:33:02;;;;;;;0.50;0.30;;;25.60;87.80;;;;;;5009882;28;20425;-69
2022/06/20 01:38:15;;;;;;;0.40;0.30;;;26.10;84.30;;;;;;5011183;28;20412;-68
2022/06/20 01:42:18;;;;;;;2.30;1.40;;;26.50;80.10;;;;;;5011313;28;20415;-70
2022/06/20 01:43:31;;;;;;;0.50;0.40;;;26.70;78.20;;;;;;4996151;28;20765;-70
2022/06/20 01:45:58;;;;;;;0.50;0.50;;;26.80;76.60;;;;;;5010466;28;20512;-70
2022/06/20 01:48:29;;;;;;;0.40;0.30;;;26.90;76.00;;;;;;5011118;28;20417;-70
2022/06/20 01:50:54;;;;;;;0.40;0.22;;;27.00;75.90;;;;;;5010055;28;20397;-70
2022/06/20 01:53:26;;;;;;;0.40;0.30;;;26.60;80.60;;;;;;5011237;28;20400;-70
2022/06/20 01:55:54;;;;;;;0.40;0.20;;;26.10;85.20;;;;;;5010189;28;20519;-70
2022/06/20 01:58:30;;;;;;;0.40;0.20;;;26.50;77.60;;;;;;5011750;28;20381;-70
2022/06/20 02:00:57;;;;;;;1.30;0.50;;;27.10;72.10;;;;;;4993033;28;20881;-69
2022/06/20 02:03:23;;;;;;;0.40;0.30;;;27.20;71.70;;;;;;5011579;28;20432;-70
2022/06/20 02:05:54;;;;;;;0.40;0.20;;;27.20;71.70;;;;;;5010572;28;20411;-71
2022/06/20 02:08:22;;;;;;;0.40;0.20;;;27.10;71.30;;;;;;5011439;28;20931;-69
2022/06/20 02:11:03;;;;;;;0.50;0.40;;;27.20;71.60;;;;;;5011328;28;20396;-69
2022/06/20 02:13:32;;;;;;;0.40;0.30;;;27.10;70.70;;;;;;5010975;28;20397;-69
2022/06/20 02:16:03;;;;;;;0.40;0.40;;;27.40;67.80;;;;;;5009925;28;20753;-69
2022/06/20 02:18:32;;;;;;;0.40;0.20;;;27.40;67.10;;;;;;5010774;28;20396;-70
2022/06/20 02:21:04;;;;;;;0.40;0.30;;;27.50;66.30;;;;;;5009924;28;20401;-71
2022/06/20 02:23:34;;;;;;;1.00;1.00;;;27.50;66.90;;;;;;5010831;28;20400;-71
2022/06/20 02:26:03;;;;;;;0.40;0.30;;;27.50;65.90;;;;;;5009706;28;20409;-69
2022/06/20 02:28:47;;;;;;;0.40;0.20;;;27.40;64.90;;;;;;5006318;28;20905;-71
2022/06/20 02:31:12;;;;;;;0.40;0.20;;;27.50;64.70;;;;;;5009746;28;20411;-69
2022/06/20 02:33:38;;;;;;;0.40;0.20;;;27.50;65.20;;;;;;5010010;28;20420;-69
2022/06/20 02:36:06;;;;;;;0.40;0.40;;;27.40;64.70;;;;;;5008788;28;20458;-69
2022/06/20 02:38:32;;;;;;;0.40;0.30;;;27.40;64.60;;;;;;5010594;28;20470;-67
2022/06/20 02:40:59;;;;;;;0.40;0.30;;;27.40;64.50;;;;;;5009459;28;20424;-71
2022/06/20 02:43:38;;;;;;;0.40;0.30;;;27.30;64.30;;;;;;5009996;28;20392;-67
2022/06/20 02:46:09;;;;;;;0.40;0.25;;;27.40;63.60;;;;;;5009594;28;20409;-68
2022/06/20 02:48:37;;;;;;;0.40;0.30;;;27.40;63.60;;;;;;5005219;28;20460;-69
2022/06/20 02:51:06;;;;;;;0.40;0.20;;;27.30;63.10;;;;;;4992642;28;20392;-68
2022/06/20 02:53:41;;;;;;;0.40;0.30;;;27.30;63.20;;;;;;5010739;28;20443;-70
2022/06/20 02:56:12;;;;;;;0.40;0.40;;;27.30;62.60;;;;;;5009148;28;20400;-67
2022/06/20 02:58:42;;;;;;;0.40;0.30;;;27.30;62.70;;;;;;4994446;28;20887;-67
2022/06/20 03:01:21;;;;;;;0.90;0.90;;;27.20;62.70;;;;;;5009739;28;20475;-68
2022/06/20 03:03:51;;;;;;;0.40;0.30;;;27.30;62.80;;;;;;4996792;28;20461;-69
2022/06/20 03:06:38;;;;;;;0.40;0.30;;;27.20;62.90;;;;;;5009048;28;20424;-69
2022/06/20 03:09:04;;;;;;;0.40;0.30;;;27.20;63.00;;;;;;5013590;28;20470;-68
2022/06/20 03:11:35;;;;;;;0.40;0.20;;;27.20;62.50;;;;;;4996917;28;20388;-67
2022/06/20 03:14:04;;;;;;;0.40;0.30;;;27.10;62.80;;;;;;5012948;28;20400;-68
2022/06/20 03:16:31;;;;;;;0.40;0.30;;;27.10;63.50;;;;;;5014129;28;20846;-66
2022/06/20 03:18:59;;;;;;;0.40;0.30;;;27.10;62.70;;;;;;5012822;28;20392;-67
2022/06/20 03:21:28;;;;;;;0.40;0.20;;;27.10;62.90;;;;;;5013879;28;20396;-69
2022/06/20 03:23:53;;;;;;;0.40;0.20;;;27.00;62.80;;;;;;5013201;28;20392;-66
2022/06/20 03:26:23;;;;;;;0.40;0.30;;;27.00;63.00;;;;;;5013958;28;20385;-68
2022/06/20 03:28:50;;;;;;;0.80;0.80;;;27.00;62.40;;;;;;5013623;28;20412;-69
2022/06/20 03:31:16;;;;;;;0.60;0.40;;;27.00;62.60;;;;;;4995698;28;20495;-69
2022/06/20 03:33:42;;;;;;;0.40;0.30;;;26.90;62.60;;;;;;5013103;28;20440;-67
2022/06/20 03:36:17;;;;;;;0.40;0.30;;;26.50;71.90;;;;;;5013357;28;20782;-67
2022/06/20 03:38:45;;;;;;;0.50;0.50;;;25.40;79.80;;;;;;5008362;28;20945;-66
2022/06/20 03:41:13;;;;;;;0.50;0.30;;;25.10;81.50;;;;;;4995395;28;20383;-68
2022/06/20 03:43:40;;;;;;;0.40;0.30;;;24.90;80.70;;;;;;5010672;28;20447;-69
2022/06/20 03:46:23;;;;;;;0.40;0.30;;;24.70;81.90;;;;;;5012778;28;20581;-71
2022/06/20 03:49:23;;;;;;;0.50;0.40;;;24.70;85.20;;;;;;5013065;28;20904;-70
2022/06/20 03:51:57;;;;;;;0.40;0.30;;;24.70;83.80;;;;;;5012914;28;20396;-71
2022/06/20 03:54:58;;;;;;;1.20;1.00;;;24.60;91.00;;;;;;4998730;28;20405;-70
2022/06/20 03:57:32;;;;;;;0.50;0.30;;;24.70;85.10;;;;;;4977970;28;20430;-70
2022/06/20 04:00:15;;;;;;;0.40;0.30;;;24.90;81.60;;;;;;4993183;28;20386;-73
2022/06/20 04:03:01;;;;;;;0.47;0.30;;;25.10;81.50;;;;;;4993563;28;20514;-71
2022/06/20 04:05:30;;;;;;;0.40;0.20;;;24.80;82.90;;;;;;4998852;28;20437;-72
2022/06/20 04:08:07;;;;;;;0.50;0.50;;;24.80;83.10;;;;;;5007524;28;20419;-72
2022/06/20 04:11:00;;;;;;;0.40;0.30;;;24.80;81.20;;;;;;5012100;28;20397;-71
2022/06/20 04:14:05;;;;;;;0.40;0.30;;;25.00;77.60;;;;;;5013064;28;20428;-68
2022/06/20 04:18:27;;;;;;;0.50;0.30;;;25.20;74.90;;;;;;5012362;28;20833;-69
2022/06/20 04:19:50;;;;;;;0.40;0.30;;;25.30;76.20;;;;;;4993279;28;20395;-71
2022/06/20 04:22:19;;;;;;;0.40;0.20;;;25.20;75.40;;;;;;5006615;28;21004;-71
2022/06/20 04:24:57;;;;;;;0.40;0.30;;;25.30;76.00;;;;;;5012742;28;20400;-70
2022/06/20 04:27:46;;;;;;;1.00;0.70;;;25.30;76.90;;;;;;5012036;28;20393;-70
2022/06/20 04:30:29;;;;;;;0.40;0.20;;;25.50;74.40;;;;;;5010284;28;20401;-71
2022/06/20 04:33:03;;;;;;;0.80;0.80;;;25.50;72.80;;;;;;5004759;28;20921;-68
2022/06/20 04:35:33;;;;;;;1.90;0.80;;;25.60;72.60;;;;;;5002582;28;20407;-70
2022/06/20 04:38:12;;;;;;;0.40;0.20;;;25.60;74.10;;;;;;5008795;28;20428;-69
2022/06/20 04:40:46;;;;;;;0.40;0.30;;;25.50;72.40;;;;;;5002581;28;20400;-68
2022/06/20 04:43:35;;;;;;;0.40;0.20;;;25.60;71.60;;;;;;5004382;28;20400;-70
2022/06/20 04:46:19;;;;;;;0.40;0.30;;;25.70;71.40;;;;;;5011914;28;20389;-69
2022/06/20 04:48:48;;;;;;;0.40;0.30;;;25.60;72.60;;;;;;5012491;28;20418;-69
2022/06/20 04:51:24;;;;;;;0.45;0.35;;;25.60;72.90;;;;;;5005603;28;20443;-68
2022/06/20 04:53:51;;;;;;;0.50;0.50;;;25.70;71.20;;;;;;5012213;28;20424;-68
2022/06/20 04:56:26;;;;;;;1.00;0.90;;;25.80;69.90;;;;;;5009221;28;20906;-71
2022/06/20 04:59:06;;;;;;;0.40;0.20;;;25.70;70.70;;;;;;5012626;28;20727;-70
2022/06/20 05:01:33;;;;;;;0.45;0.35;;;25.60;70.90;;;;;;5009927;28;20424;-70
2022/06/20 05:04:31;;;;;;;0.40;0.20;;;25.70;71.30;;;;;;5011171;28;20864;-70
2022/06/20 05:06:59;;;;;;;0.40;0.30;;;25.70;70.10;;;;;;5006339;28;20489;-70
2022/06/20 05:09:41;;;;;;;0.80;0.80;;;25.60;71.00;;;;;;5011300;28;20475;-70
2022/06/20 05:12:21;;;;;;;1.30;0.90;;;25.60;70.40;;;;;;5009238;28;20401;-70
2022/06/20 05:15:01;;;;;;;0.50;0.50;;;25.70;69.30;;;;;;5012098;28;20381;-69
2022/06/20 05:17:29;;;;;;;0.40;0.30;;;25.60;70.90;;;;;;5012407;28;20381;-70
2022/06/20 05:20:06;;;;;;;0.40;0.22;;;25.50;69.70;;;;;;5011035;28;20400;-71
2022/06/20 05:22:38;;;;;;;0.40;0.20;;;25.50;69.20;;;;;;5001375;28;20409;-71
2022/06/20 05:25:08;;;;;;;0.40;0.30;;;25.50;69.70;;;;;;5006337;28;20403;-71
2022/06/20 05:27:50;;;;;;;0.60;0.50;;;25.60;69.50;;;;;;5002326;28;20385;-71
2022/06/20 05:30:19;;;;;;;0.40;0.20;;;25.60;69.60;;;;;;5003185;28;20746;-71
2022/06/20 05:33:09;;;;;;;0.40;0.30;;;25.70;69.10;;;;;;4993759;28;20893;-71
2022/06/20 05:35:53;;;;;;;0.40;0.20;;;25.60;69.10;;;;;;4993459;28;20413;-72
2022/06/20 05:38:41;;;;;;;0.40;0.30;;;25.60;69.90;;;;;;5001915;28;20404;-71
2022/06/20 05:41:09;;;;;;;0.40;0.30;;;25.50;70.10;;;;;;5004880;28;20455;-70
2022/06/20 05:43:36;;;;;;;0.40;0.30;;;25.50;69.10;;;;;;5009094;28;20377;-71
2022/06/20 05:46:10;;;;;;;0.60;0.60;;;25.60;68.60;;;;;;4998079;28;20439;-71
2022/06/20 05:48:51;;;;;;;0.40;0.30;;;25.60;69.20;;;;;;5011557;28;20416;-71
2022/06/20 05:51:20;;;;;;;0.80;0.80;;;25.60;68.60;;;;;;5010917;28;20479;-71
2022/06/20 05:53:52;;;;;;;0.45;0.28;;;25.60;69.20;;;;;;4991836;28;20741;-71
2022/06/20 05:56:34;;;;;;;0.40;0.30;;;25.60;69.20;;;;;;4991406;28;20383;-71
2022/06/20 05:59:01;;;;;;;1.60;0.80;;;25.70;68.20;;;;;;4991945;28;20387;-70
2022/06/20 06:01:35;;;;;;;0.40;0.30;;;25.70;69.20;;;;;;4991717;28;20383;-71
2022/06/20 06:04:33;;;;;;;0.50;0.30;;;25.80;69.40;;;;;;4991764;28;20476;-74
2022/06/20 06:07:25;;;;;;;0.40;0.30;;;25.70;69.10;;;;;;5003818;28;20424;-71
2022/06/20 06:09:53;;;;;;;0.50;0.40;;;25.80;69.10;;;;;;5005084;28;20397;-71
2022/06/20 06:12:27;;;;;;;0.40;0.20;;;25.80;68.40;;;;;;5009511;28;20393;-71
2022/06/20 06:15:00;;;;;;;0.40;0.20;;;26.00;69.10;;;;;;5005541;28;20408;-71
2022/06/20 06:17:37;;;;;;;0.40;0.20;;;26.00;68.50;;;;;;5011424;28;20392;-71
2022/06/20 06:20:10;;;;;;;0.50;0.50;;;26.10;68.40;;;;;;5010925;28;20377;-71
2022/06/20 06:22:45;;;;;;;0.40;0.20;;;26.10;69.50;;;;;;5010770;28;20388;-71
2022/06/20 06:25:26;;;;;;;0.40;0.30;;;26.20;69.10;;;;;;5009977;28;20384;-69
2022/06/20 06:28:05;;;;;;;0.40;0.30;;;26.10;68.40;;;;;;5008674;28;20486;-72
2022/06/20 06:30:41;;;;;;;0.40;0.30;;;26.30;68.10;;;;;;5005855;28;20411;-71
2022/06/20 06:33:26;;;;;;;0.40;0.30;;;26.30;68.70;;;;;;5006504;28;20416;-70
2022/06/20 06:36:23;;;;;;;0.40;0.30;;;26.40;68.80;;;;;;5009500;28;20440;-69
2022/06/20 06:39:10;;;;;;;0.40;0.20;;;26.50;68.20;;;;;;4940356;28;20491;-71
2022/06/20 06:41:38;;;;;;;0.40;0.20;;;26.50;68.80;;;;;;5004247;28;20896;-71
2022/06/20 06:44:35;;;;;;;0.40;0.30;;;26.50;69.10;;;;;;5005323;28;20409;-70
2022/06/20 06:47:02;;;;;;;0.40;0.20;;;26.40;69.00;;;;;;5002571;28;20432;-69
2022/06/20 06:49:40;;;;;;;0.50;0.40;;;26.30;69.80;;;;;;5008402;28;20420;-70
2022/06/20 06:52:34;;;;;;;0.40;0.40;;;26.30;70.80;;;;;;5007742;28;20407;-72
2022/06/20 06:55:17;;;;;;;0.90;0.60;;;26.30;71.30;;;;;;5005592;28;20385;-71
2022/06/20 06:57:47;;;;;;;0.40;0.30;;;26.20;70.70;;;;;;5008151;28;20761;-71
2022/06/20 07:00:23;;;;;;;0.40;0.30;;;26.10;71.70;;;;;;5008861;28;20409;-69
2022/06/20 07:03:03;;;;;;;0.40;0.20;;;26.20;71.50;;;;;;5007234;28;20417;-70
2022/06/20 07:05:37;;;;;;;0.80;0.80;;;26.20;71.40;;;;;;5008789;28;20421;-70
2022/06/20 07:08:20;;;;;;;0.40;0.20;;;26.30;71.30;;;;;;4994349;28;20433;-70
2022/06/20 07:11:04;;;;;;;0.40;0.30;;;26.40;71.80;;;;;;5004039;28;20401;-70
2022/06/20 07:13:36;;;;;;;0.40;0.30;;;26.30;71.40;;;;;;5009633;28;20384;-70
2022/06/20 07:16:10;;;;;;;0.50;0.40;;;26.40;69.90;;;;;;5003922;28;20518;-69
2022/06/20 07:18:46;;;;;;;0.40;0.20;;;26.40;72.30;;;;;;5007486;28;20463;-69
2022/06/20 07:21:21;;;;;;;0.50;0.50;;;26.40;70.80;;;;;;5006160;28;20476;-69
2022/06/20 07:24:01;;;;;;;0.40;0.20;;;26.40;70.40;;;;;;5009085;28;20433;-70
2022/06/20 07:26:37;;;;;;;0.40;0.20;;;26.50;71.90;;;;;;5008125;28;20489;-71
2022/06/20 07:29:24;;;;;;;0.40;0.20;;;26.50;70.40;;;;;;5004395;28;20432;-69
2022/06/20 07:31:55;;;;;;;0.40;0.40;;;26.50;69.30;;;;;;5003772;28;20494;-69
2022/06/20 07:34:51;;;;;;;0.40;0.30;;;26.50;70.60;;;;;;5008008;28;20457;-69
2022/06/20 07:37:43;;;;;;;1.20;1.10;;;26.50;69.30;;;;;;5000618;28;20441;-69
2022/06/20 07:40:12;;;;;;;0.40;0.20;;;26.70;68.80;;;;;;5005083;28;20932;-71
2022/06/20 07:43:01;;;;;;;0.40;0.30;;;26.70;69.30;;;;;;5005033;28;20924;-70
2022/06/20 07:45:36;;;;;;;10.80;0.60;;;26.80;69.30;;;;;;5008918;28;20527;-69
2022/06/20 07:48:12;;;;;;;0.50;0.40;;;26.70;68.60;;;;;;5010066;28;20423;-70
2022/06/20 07:50:43;;;;;;;0.40;0.20;;;26.80;69.40;;;;;;5013986;28;20885;-70
2022/06/20 07:53:11;;;;;;;0.40;0.30;;;26.90;68.80;;;;;;5013808;28;20974;-70
2022/06/20 07:55:44;;;;;;;0.40;0.20;;;27.00;68.70;;;;;;5020252;28;20504;-71
2022/06/20 07:58:22;;;;;;;0.40;0.22;;;27.10;68.70;;;;;;5011417;28;20385;-72
2022/06/20 08:00:51;;;;;;;0.68;0.68;;;27.00;68.90;;;;;;5013554;28;20377;-71
2022/06/20 08:03:49;;;;;;;1.00;0.90;;;27.00;69.40;;;;;;5007160;28;20408;-70
2022/06/20 08:06:27;;;;;;;0.40;0.20;;;27.10;69.70;;;;;;5005014;28;20400;-71
2022/06/20 08:09:06;;;;;;;0.40;0.30;;;27.10;68.70;;;;;;5004574;28;20892;-71
2022/06/20 08:11:43;;;;;;;0.40;0.30;;;27.20;69.50;;;;;;5000710;28;20446;-71
2022/06/20 08:14:31;;;;;;;0.50;0.50;;;27.20;70.00;;;;;;5006654;28;20381;-72
2022/06/20 08:17:03;;;;;;;0.40;0.30;;;27.30;69.90;;;;;;5008627;28;20484;-71
2022/06/20 08:19:30;;;;;;;0.80;0.70;;;27.30;70.10;;;;;;5008156;28;20576;-72
2022/06/20 08:22:11;;;;;;;1.00;0.60;;;27.40;69.70;;;;;;5004769;28;20378;-71
2022/06/20 08:24:39;;;;;;;0.50;0.40;;;27.50;69.90;;;;;;4995435;28;20478;-71
2022/06/20 08:27:07;;;;;;;0.40;0.20;;;27.50;69.10;;;;;;5005885;28;20762;-70
2022/06/20 08:29:46;;;;;;;0.40;0.30;;;27.30;69.30;;;;;;5012087;28;20503;-71
2022/06/20 08:32:25;;;;;;;0.40;0.40;;;27.30;70.40;;;;;;5008696;28;21011;-72
2022/06/20 08:35:15;;;;;;;0.45;0.35;;;27.20;70.90;;;;;;5008449;28;20525;-70
2022/06/20 08:38:27;;;;;;;0.40;0.30;;;27.20;72.40;;;;;;5011801;28;20447;-70
2022/06/20 08:41:28;;;;;;;0.85;0.80;;;27.20;71.70;;;;;;5009235;28;20408;-70
2022/06/20 08:44:21;;;;;;;0.40;0.22;;;27.40;71.90;;;;;;5004031;28;20473;-70
2022/06/20 08:47:26;;;;;;;0.40;0.40;;;27.40;71.20;;;;;;5005949;28;20400;-69
2022/06/20 08:50:19;;;;;;;0.40;0.20;;;27.40;73.00;;;;;;4962302;28;20885;-70
2022/06/20 08:52:56;;;;;;;0.50;0.40;;;27.20;72.20;;;;;;4993163;28;20393;-69
2022/06/20 08:55:44;;;;;;;0.40;0.30;;;27.10;73.50;;;;;;5010228;28;20443;-71
2022/06/20 08:58:40;;;;;;;0.40;0.20;;;27.10;72.70;;;;;;5008696;28;20427;-71
2022/06/20 09:01:21;;;;;;;0.40;0.20;;;27.10;72.70;;;;;;5005543;28;20460;-70
2022/06/20 09:03:47;;;;;;;0.50;0.40;;;27.10;73.20;;;;;;5008753;28;20411;-71
2022/06/20 09:06:37;;;;;;;0.40;0.20;;;26.90;73.30;;;;;;5009596;28;20943;-72
2022/06/20 09:09:06;;;;;;;0.40;0.30;;;27.20;73.90;;;;;;5001841;28;20783;-71
2022/06/20 09:12:16;;;;;;;1.10;0.60;;;27.20;73.60;;;;;;5005595;28;20490;-71
2022/06/20 09:14:42;;;;;;;0.40;0.30;;;27.40;74.10;;;;;;5007260;28;20691;-71
2022/06/20 09:17:46;;;;;;;0.40;0.40;;;27.30;74.50;;;;;;5012108;28;20456;-71
2022/06/20 09:20:26;;;;;;;0.40;0.30;;;27.30;74.50;;;;;;5011853;28;20381;-70
2022/06/20 09:23:30;;;;;;;0.40;0.30;;;27.20;74.60;;;;;;5002625;28;20398;-71
2022/06/20 09:26:10;;;;;;;0.50;0.40;;;27.30;73.60;;;;;;4983557;28;20401;-71
2022/06/20 09:29:21;;;;;;;0.40;0.30;;;27.40;74.30;;;;;;5009005;28;20425;-70
2022/06/20 09:32:21;;;;;;;0.47;0.47;;;27.60;74.30;;;;;;4992019;28;20420;-71
2022/06/20 09:35:05;;;;;;;0.40;0.30;;;27.60;75.00;;;;;;5008595;28;20955;-72
2022/06/20 09:38:16;;;;;;;0.70;0.70;;;27.50;71.90;;;;;;5010898;28;20455;-70
2022/06/20 09:40:55;;;;;;;0.40;0.30;;;27.50;73.50;;;;;;5008903;28;20402;-71
2022/06/20 09:43:21;;;;;;;0.40;0.20;;;27.60;72.80;;;;;;5009831;28;20401;-71
2022/06/20 09:46:35;;;;;;;0.50;0.50;;;27.50;72.90;;;;;;5010940;28;20516;-71
2022/06/20 09:49:18;;;;;;;0.40;0.30;;;27.50;73.10;;;;;;4997332;28;20742;-72
2022/06/20 09:52:03;;;;;;;0.50;0.40;;;27.70;70.00;;;;;;5011300;28;20403;-70
2022/06/20 09:54:49;;;;;;;0.50;0.40;;;27.80;70.60;;;;;;5010911;28;20715;-71
2022/06/20 09:57:49;;;;;;;0.40;0.30;;;28.00;71.30;;;;;;4991146;28;20513;-71
2022/06/20 10:00:17;;;;;;;0.40;0.30;;;28.10;70.60;;;;;;4996374;28;20487;-70
2022/06/20 10:03:07;;;;;;;0.40;0.30;;;28.10;70.30;;;;;;5011123;28;20408;-70
2022/06/20 10:05:47;;;;;;;0.95;0.95;;;28.30;70.90;;;;;;5009624;28;20483;-72
2022/06/20 10:08:19;;;;;;;0.40;0.30;;;28.30;69.90;;;;;;5010151;28;20413;-71
2022/06/20 10:10:50;;;;;;;0.40;0.20;;;28.40;68.10;;;;;;5008316;28;20457;-69
2022/06/20 10:13:31;;;;;;;0.40;0.40;;;28.40;67.30;;;;;;5002465;28;20889;-72
2022/06/20 10:16:10;;;;;;;0.40;0.30;;;28.60;66.40;;;;;;5007077;28;20413;-71
2022/06/20 10:18:46;;;;;;;0.40;0.20;;;28.70;68.80;;;;;;5008872;28;20400;-70
2022/06/20 10:21:39;;;;;;;0.40;0.20;;;28.70;66.00;;;;;;5011004;28;20428;-71
2022/06/20 10:24:23;;;;;;;0.63;0.52;;;28.70;65.00;;;;;;4995940;28;20400;-71
2022/06/20 10:26:54;;;;;;;0.40;0.30;;;28.70;65.20;;;;;;5007883;28;20456;-72
2022/06/20 10:29:19;;;;;;;0.40;0.30;;;28.80;66.10;;;;;;4990644;28;20472;-71
2022/06/20 10:31:55;;;;;;;0.40;0.30;;;28.90;65.70;;;;;;4990968;28;20383;-71
2022/06/20 10:34:53;;;;;;;0.40;0.30;;;28.90;64.20;;;;;;5001454;28;20408;-71
2022/06/20 10:37:25;;;;;;;0.40;0.20;;;28.90;64.00;;;;;;5009685;28;20400;-72
2022/06/20 10:40:01;;;;;;;0.40;0.30;;;28.90;63.90;;;;;;5010904;28;20893;-72
2022/06/20 10:42:32;;;;;;;0.70;0.70;;;29.10;64.60;;;;;;5010065;28;20473;-72
2022/06/20 10:45:27;;;;;;;0.40;0.30;;;29.40;63.50;;;;;;5010089;28;20920;-72
2022/06/20 10:48:17;;;;;;;0.40;0.20;;;29.60;62.40;;;;;;4996780;28;20403;-71
2022/06/20 10:50:42;;;;;;;0.70;0.50;;;29.50;62.00;;;;;;5000848;28;20410;-71
2022/06/20 10:53:29;;;;;;;0.80;0.80;;;29.40;63.70;;;;;;4997810;28;20733;-72
2022/06/20 10:56:09;;;;;;;0.50;0.40;;;29.50;60.80;;;;;;5008372;28;20404;-72
2022/06/20 10:59:05;;;;;;;0.40;0.30;;;29.20;61.80;;;;;;4990416;28;20469;-71
2022/06/20 11:01:40;;;;;;;0.40;0.20;;;29.30;62.30;;;;;;4990395;28;20390;-73
2022/06/20 11:04:29;;;;;;;0.40;0.20;;;29.40;60.40;;;;;;4991543;28;20394;-72
2022/06/20 11:07:01;;;;;;;0.40;0.20;;;29.30;61.80;;;;;;4990067;28;20407;-72
2022/06/20 11:09:35;;;;;;;0.40;0.20;;;29.10;62.00;;;;;;4999946;28;20413;-72
2022/06/20 11:12:05;;;;;;;0.40;0.30;;;29.20;62.90;;;;;;5010882;28;20980;-72
2022/06/20 11:14:57;;;;;;;0.40;0.30;;;29.40;61.50;;;;;;4991870;28;20455;-72
2022/06/20 11:17:42;;;;;;;0.40;0.30;;;29.60;61.60;;;;;;5004244;28;20401;-72
2022/06/20 11:20:24;;;;;;;0.40;0.30;;;29.60;62.60;;;;;;5010049;28;20462;-71
2022/06/20 11:22:59;;;;;;;0.40;0.30;;;29.90;63.60;;;;;;4998756;28;20393;-72
2022/06/20 11:25:50;;;;;;;0.70;0.60;;;30.30;60.00;;;;;;5013667;28;20376;-72
2022/06/20 11:28:40;;;;;;;0.40;0.30;;;30.10;59.30;;;;;;5014040;28;20916;-72
2022/06/20 11:31:29;;;;;;;0.40;0.30;;;30.60;60.30;;;;;;5013548;28;20400;-72
2022/06/20 11:34:32;;;;;;;0.40;0.30;;;31.30;57.90;;;;;;5012486;28;20474;-70
2022/06/20 11:37:20;;;;;;;0.60;0.50;;;30.80;57.00;;;;;;5012059;28;20889;-70
2022/06/20 11:40:24;;;;;;;0.40;0.20;;;30.60;57.90;;;;;;5012975;28;20404;-70
2022/06/20 11:43:01;;;;;;;0.40;0.20;;;30.10;58.20;;;;;;5013353;28;20422;-70
2022/06/20 11:45:48;;;;;;;0.40;0.20;;;30.30;58.40;;;;;;4998548;28;20425;-71
2022/06/20 11:48:22;;;;;;;0.40;0.30;;;30.40;58.10;;;;;;5004639;28;20535;-70
2022/06/20 11:50:57;;;;;;;0.40;0.20;;;30.30;60.50;;;;;;4998813;28;20463;-69
2022/06/20 11:53:40;;;;;;;0.40;0.30;;;29.30;69.30;;;;;;5006873;28;20536;-70
2022/06/20 11:56:46;;;;;;;0.40;0.30;;;29.00;72.30;;;;;;4994264;28;20835;-70
2022/06/20 11:59:22;;;;;;;0.40;0.30;;;28.80;74.30;;;;;;4951596;28;20499;-70
2022/06/20 12:02:06;;;;;;;0.40;0.40;;;28.50;76.00;;;;;;5011392;28;20407;-70
2022/06/20 12:04:49;;;;;;;0.40;0.20;;;28.70;77.00;;;;;;5008814;28;20412;-70
2022/06/20 12:07:28;;;;;;;0.40;0.40;;;29.70;77.00;;;;;;5008234;28;20803;-70
2022/06/20 12:10:13;;;;;;;0.40;0.20;;;31.10;72.50;;;;;;5004145;28;20815;-71
2022/06/20 12:12:45;;;;;;;0.40;0.20;;;31.60;68.10;;;;;;5012156;28;20412;-71
2022/06/20 12:15:43;;;;;;;0.40;0.23;;;31.90;64.90;;;;;;5012136;28;20389;-71
2022/06/20 12:18:27;;;;;;;0.40;0.22;;;31.00;67.50;;;;;;5001487;28;20477;-71
2022/06/20 12:23:46;;;;;;;0.40;0.20;;;30.30;70.70;;;;;;5004090;28;20391;-71
2022/06/20 12:26:18;;;;;;;0.50;0.40;;;29.90;70.90;;;;;;5001521;28;20401;-71
2022/06/20 12:28:49;;;;;;;0.40;0.22;;;29.90;72.20;;;;;;5011951;28;20416;-71
2022/06/20 12:31:25;;;;;;;0.40;0.20;;;29.20;71.30;;;;;;5013212;28;20784;-71
2022/06/20 12:33:54;;;;;;;0.40;0.20;;;29.00;72.40;;;;;;5012722;28;20413;-71
2022/06/20 12:36:31;;;;;;;0.40;0.20;;;30.00;70.40;;;;;;5012347;28;20444;-70
2022/06/20 12:39:06;;;;;;;0.40;0.20;;;30.50;68.00;;;;;;5003965;28;20410;-70
2022/06/20 12:41:39;;;;;;;0.40;0.30;;;30.10;70.30;;;;;;4998228;28;20399;-70
2022/06/20 12:44:42;;;;;;;1.00;0.60;;;30.20;66.60;;;;;;5006599;28;20405;-70
2022/06/20 12:47:25;;;;;;;0.40;0.20;;;30.10;69.50;;;;;;5004390;28;20412;-70
2022/06/20 12:50:10;;;;;;;0.60;0.60;;;29.80;70.40;;;;;;5008662;28;20417;-70
2022/06/20 12:52:35;;;;;;;0.40;0.20;;;30.60;68.50;;;;;;5006893;28;20412;-70
2022/06/20 12:55:48;;;;;;;0.40;0.20;;;31.00;66.20;;;;;;5012183;28;20412;-70
2022/06/20 12:58:25;;;;;;;0.40;0.20;;;31.20;67.60;;;;;;5008835;28;20476;-70
2022/06/20 13:01:10;;;;;;;0.40;0.20;;;30.80;65.60;;;;;;5006459;28;20469;-70
2022/06/20 13:03:56;;;;;;;0.40;0.30;;;31.00;68.30;;;;;;5004425;28;20392;-70
2022/06/20 13:06:43;;;;;;;0.50;0.30;;;30.10;68.40;;;;;;5005768;28;20410;-70
2022/06/20 13:09:38;;;;;;;0.50;0.40;;;29.60;67.20;;;;;;5008851;28;20413;-71
2022/06/20 13:12:53;;;;;;;0.90;0.60;;;29.40;68.80;;;;;;5007335;28;20420;-70
2022/06/20 13:15:37;;;;;;;0.40;0.20;;;29.20;69.10;;;;;;4967254;28;20397;-69
2022/06/20 13:18:36;;;;;;;0.40;0.30;;;28.70;68.60;;;;;;4952097;28;20539;-70
2022/06/20 13:21:18;;;;;;;0.50;0.30;;;29.40;69.10;;;;;;4996106;28;20412;-71
2022/06/20 13:24:14;;;;;;;0.40;0.25;;;29.30;68.90;;;;;;5008846;28;20421;-71
2022/06/20 13:27:09;;;;;;;0.40;0.30;;;29.70;68.10;;;;;;4991697;28;20398;-70
2022/06/20 13:29:50;;;;;;;0.40;0.30;;;30.10;66.40;;;;;;5000167;28;20440;-71
2022/06/20 13:32:38;;;;;;;0.40;0.30;;;29.80;67.70;;;;;;5011681;28;20412;-70
2022/06/20 13:35:30;;;;;;;0.40;0.20;;;29.60;68.40;;;;;;5011663;28;20385;-70
2022/06/20 13:38:08;;;;;;;0.40;0.30;;;29.90;69.40;;;;;;5011094;28;20385;-71
2022/06/20 13:40:34;;;;;;;0.40;0.20;;;29.80;66.50;;;;;;5011058;28;20715;-71
2022/06/20 13:43:17;;;;;;;0.40;0.20;;;29.10;69.50;;;;;;5011848;28;20396;-70
2022/06/20 13:45:55;;;;;;;0.50;0.50;;;29.20;70.60;;;;;;5010435;28;20377;-70
2022/06/20 13:48:36;;;;;;;0.40;0.30;;;30.00;69.10;;;;;;5011725;28;20463;-71
2022/06/20 13:51:41;;;;;;;0.60;0.60;;;30.20;68.50;;;;;;4995829;28;20389;-71
2022/06/20 13:54:40;;;;;;;0.40;0.20;;;29.60;69.20;;;;;;4945948;28;20776;-70